Time;durP1;ratioP1;P1;durP2;ratioP2;P2;SDS_P1;SDS_P2;PMS_P1;PMS_P2;Temp;Humidity;BMP_temperature;BMP_pressure;BME280_temperature;BME280_humidity;BME280_pressure;Samples;Min_cycle;Max_cycle;Signal;HPM_P1;HPM_P2
2021/05/03 00:01:39;;;;;;;12.45;4.90;;;;;;;12.25;100.00;99285.95;1704477;83;21288;-79
2021/05/03 00:04:08;;;;;;;12.47;4.78;;;;;;;12.23;100.00;99267.66;1704556;83;21134;-78
2021/05/03 00:06:35;;;;;;;9.95;5.08;;;;;;;12.20;100.00;99255.89;1704718;84;21190;-79
2021/05/03 00:09:06;;;;;;;11.43;4.70;;;;;;;12.17;100.00;99254.94;1704673;84;21126;-78
2021/05/03 00:11:35;;;;;;;10.08;4.50;;;;;;;12.14;100.00;99266.99;1704682;83;21138;-78
2021/05/03 00:14:04;;;;;;;15.03;4.97;;;;;;;12.14;100.00;99275.13;1704597;83;21122;-79
2021/05/03 00:16:32;;;;;;;14.65;5.20;;;;;;;12.13;100.00;99264.52;1705071;84;21166;-79
2021/05/03 00:19:00;;;;;;;12.50;5.00;;;;;;;12.12;100.00;99254.17;1707781;83;21191;-78
2021/05/03 00:21:28;;;;;;;10.78;5.00;;;;;;;12.11;100.00;99276.05;1770866;80;21693;-79
2021/05/03 00:23:57;;;;;;;9.95;4.35;;;;;;;12.11;100.00;99280.11;1770520;81;21148;-78
2021/05/03 00:26:25;;;;;;;8.00;4.45;;;;;;;12.11;100.00;99275.55;1766414;81;21575;-78
2021/05/03 00:28:53;;;;;;;15.32;5.10;;;;;;;12.11;100.00;99271.98;1761600;81;21337;-79
2021/05/03 00:31:20;;;;;;;12.70;5.28;;;;;;;12.10;100.00;99286.58;1761835;80;21165;-77
2021/05/03 00:33:49;;;;;;;10.58;4.42;;;;;;;12.11;100.00;99278.26;1761838;81;21121;-78
2021/05/03 00:36:17;;;;;;;11.50;4.67;;;;;;;12.09;100.00;99268.64;1761971;81;21702;-80
2021/05/03 00:38:44;;;;;;;13.10;4.92;;;;;;;12.07;100.00;99268.83;1761709;80;21145;-78
2021/05/03 00:41:12;;;;;;;10.93;4.75;;;;;;;12.07;100.00;99267.48;1761488;81;21152;-78
2021/05/03 00:43:40;;;;;;;12.37;5.40;;;;;;;12.06;100.00;99273.95;1761620;81;21161;-77
2021/05/03 00:46:09;;;;;;;14.45;5.58;;;;;;;12.07;100.00;99279.67;1761713;81;21137;-79
2021/05/03 00:48:38;;;;;;;11.53;4.70;;;;;;;12.05;100.00;99284.45;1761653;81;21101;-79
2021/05/03 00:51:07;;;;;;;13.58;5.55;;;;;;;12.04;100.00;99308.55;1761656;81;21306;-79
2021/05/03 00:53:35;;;;;;;13.75;5.15;;;;;;;12.04;100.00;99311.25;1761570;81;21733;-77
2021/05/03 00:56:04;;;;;;;13.38;5.17;;;;;;;12.06;100.00;99320.02;1761786;80;21153;-79
2021/05/03 00:58:32;;;;;;;9.33;4.60;;;;;;;12.04;100.00;99320.73;1761617;81;21647;-79
2021/05/03 01:00:59;;;;;;;9.65;4.85;;;;;;;12.03;100.00;99319.58;1761633;81;21129;-78
2021/05/03 01:03:27;;;;;;;14.23;5.65;;;;;;;12.02;100.00;99327.37;1742776;81;21552;-80
2021/05/03 01:05:55;;;;;;;16.00;5.87;;;;;;;11.99;100.00;99327.27;1742876;81;21144;-79
2021/05/03 01:08:24;;;;;;;10.13;4.80;;;;;;;11.95;100.00;99325.47;1761451;81;21547;-78
2021/05/03 01:10:52;;;;;;;14.78;5.15;;;;;;;11.94;100.00;99329.20;1761655;81;21125;-79
2021/05/03 01:13:20;;;;;;;14.60;5.15;;;;;;;11.91;100.00;99320.10;1761540;81;21331;-79
2021/05/03 01:15:47;;;;;;;13.30;5.35;;;;;;;11.91;100.00;99309.80;1761535;81;21283;-79
2021/05/03 01:18:15;;;;;;;14.50;5.17;;;;;;;11.88;100.00;99305.59;1750857;81;21591;-77
2021/05/03 01:20:43;;;;;;;11.48;4.28;;;;;;;11.86;100.00;99305.45;1741720;81;21583;-78
2021/05/03 01:23:11;;;;;;;14.23;4.62;;;;;;;11.85;100.00;99303.27;1746989;82;21157;-79
2021/05/03 01:25:41;;;;;;;11.12;5.20;;;;;;;11.82;100.00;99307.72;1747026;82;21173;-78
2021/05/03 01:28:09;;;;;;;13.13;5.67;;;;;;;11.80;100.00;99301.66;1747532;81;21599;-77
2021/05/03 01:30:40;;;;;;;14.85;5.40;;;;;;;11.78;100.00;99319.98;1746572;82;21138;-77
2021/05/03 01:33:12;;;;;;;16.93;5.08;;;;;;;11.78;100.00;99310.51;1743989;81;21591;-78
2021/05/03 01:35:43;;;;;;;14.68;5.42;;;;;;;11.77;100.00;99316.95;1741628;82;21268;-79
2021/05/03 01:38:11;;;;;;;11.55;5.47;;;;;;;11.77;100.00;99317.80;1741768;82;21161;-80
2021/05/03 01:40:41;;;;;;;15.78;5.30;;;;;;;11.77;100.00;99316.95;1741838;82;21275;-79
2021/05/03 01:43:20;;;;;;;12.93;4.67;;;;;;;11.77;100.00;99321.87;1741688;82;21184;-78
2021/05/03 01:45:50;;;;;;;15.93;5.22;;;;;;;11.78;100.00;99314.57;1741557;82;21162;-78
2021/05/03 01:48:21;;;;;;;17.35;6.00;;;;;;;11.76;100.00;99321.53;1741684;82;21121;-78
2021/05/03 01:50:49;;;;;;;13.90;5.30;;;;;;;11.74;100.00;99323.61;1689582;83;21165;-78
2021/05/03 01:53:17;;;;;;;17.52;6.22;;;;;;;11.74;100.00;99320.06;1689651;85;21161;-78
2021/05/03 01:55:47;;;;;;;15.58;6.05;;;;;;;11.72;100.00;99323.46;1689754;85;21714;-78
2021/05/03 01:58:15;;;;;;;16.12;6.00;;;;;;;11.72;100.00;99315.34;1689399;83;21846;-79
2021/05/03 02:00:43;;;;;;;15.08;7.40;;;;;;;11.70;100.00;99318.23;1689538;85;21168;-78
2021/05/03 02:03:26;;;;;;;19.60;7.30;;;;;;;11.68;100.00;99314.89;1689570;85;21173;-79
2021/05/03 02:06:00;;;;;;;17.17;6.85;;;;;;;11.70;100.00;99310.64;1814827;77;22702;-78
2021/05/03 02:08:28;;;;;;;12.20;5.85;;;;;;;11.65;100.00;99316.66;1786530;80;21141;-78
2021/05/03 02:10:56;;;;;;;14.70;5.67;;;;;;;11.64;100.00;99318.21;1786827;80;21097;-78
2021/05/03 02:13:24;;;;;;;13.70;5.50;;;;;;;11.61;100.00;99312.65;1786717;80;21129;-78
2021/05/03 02:15:52;;;;;;;16.45;5.58;;;;;;;11.61;100.00;99314.53;1786682;80;21117;-76
2021/05/03 02:18:20;;;;;;;16.48;6.15;;;;;;;11.62;100.00;99328.41;1786702;80;21117;-77
2021/05/03 02:20:48;;;;;;;16.00;6.15;;;;;;;11.62;100.00;99329.75;1786753;80;21152;-78
2021/05/03 02:23:16;;;;;;;13.03;5.55;;;;;;;11.62;100.00;99321.11;1786568;80;21298;-79
2021/05/03 02:25:44;;;;;;;13.60;5.42;;;;;;;11.63;100.00;99320.58;1786746;80;21128;-78
2021/05/03 02:28:12;;;;;;;16.70;5.90;;;;;;;11.63;100.00;99321.41;1786581;80;21121;-77
2021/05/03 02:30:40;;;;;;;12.90;5.90;;;;;;;11.66;100.00;99327.80;1786693;80;21121;-77
2021/05/03 02:33:08;;;;;;;19.73;6.58;;;;;;;11.69;100.00;99327.94;1786770;80;21140;-75
2021/05/03 02:35:36;;;;;;;15.30;6.00;;;;;;;11.72;100.00;99327.53;1786514;80;21133;-76
2021/05/03 02:38:08;;;;;;;15.75;5.60;;;;;;;11.75;100.00;99325.27;1786723;80;21322;-78
2021/05/03 02:40:36;;;;;;;12.65;5.95;;;;;;;11.76;100.00;99321.53;1786715;80;21555;-79
2021/05/03 02:43:03;;;;;;;14.45;6.15;;;;;;;11.80;100.00;99317.09;1786548;80;21145;-78
2021/05/03 02:45:32;;;;;;;13.08;6.10;;;;;;;11.80;100.00;99318.44;1786646;80;21137;-78
2021/05/03 02:48:00;;;;;;;14.33;5.37;;;;;;;11.81;100.00;99311.97;1786578;79;21189;-78
2021/05/03 02:50:28;;;;;;;13.30;5.75;;;;;;;11.82;100.00;99300.12;1786532;80;21090;-78
2021/05/03 02:52:55;;;;;;;13.38;6.15;;;;;;;11.82;100.00;99304.18;1786482;80;21133;-78
2021/05/03 02:55:23;;;;;;;15.90;6.45;;;;;;;11.82;100.00;99296.05;1786627;80;21556;-79
2021/05/03 02:57:54;;;;;;;16.07;5.72;;;;;;;11.83;100.00;99288.23;1786487;80;21702;-77
2021/05/03 03:00:28;;;;;;;14.85;5.42;;;;;;;11.83;100.00;99299.92;1786554;80;21152;-78
2021/05/03 03:02:56;;;;;;;18.23;6.08;;;;;;;11.86;100.00;99311.70;1786658;79;21247;-79
2021/05/03 03:05:24;;;;;;;14.90;5.55;;;;;;;11.88;100.00;99312.36;1786985;80;21125;-77
2021/05/03 03:07:52;;;;;;;15.28;5.95;;;;;;;11.91;100.00;99312.50;1787347;80;21132;-78
2021/05/03 03:10:20;;;;;;;16.17;6.30;;;;;;;11.93;100.00;99310.42;1787517;80;21535;-78
2021/05/03 03:12:49;;;;;;;14.05;5.20;;;;;;;11.95;100.00;99307.00;1787393;80;21129;-79
2021/05/03 03:15:19;;;;;;;16.05;5.30;;;;;;;11.96;100.00;99301.91;1787244;80;21144;-77
2021/05/03 03:17:52;;;;;;;15.18;5.53;;;;;;;11.98;100.00;99311.20;1786187;80;21571;-77
2021/05/03 03:20:20;;;;;;;15.98;6.58;;;;;;;12.00;100.00;99309.95;1785240;80;21572;-78
2021/05/03 03:22:48;;;;;;;16.07;6.25;;;;;;;12.04;100.00;99311.75;1784976;80;21283;-79
2021/05/03 03:25:17;;;;;;;12.37;5.62;;;;;;;12.05;100.00;99312.08;1784982;80;21315;-78
2021/05/03 03:27:45;;;;;;;16.40;5.50;;;;;;;12.08;100.00;99329.30;1715858;84;21185;-78
2021/05/03 03:30:15;;;;;;;15.25;6.00;;;;;;;12.11;100.00;99328.89;1745560;82;21185;-77
2021/05/03 03:32:45;;;;;;;14.73;6.03;;;;;;;12.12;100.00;99326.51;1715859;83;21572;-79
2021/05/03 03:35:17;;;;;;;13.98;6.12;;;;;;;12.14;100.00;99330.68;1715772;84;21177;-78
2021/05/03 03:37:46;;;;;;;16.23;6.28;;;;;;;12.18;100.00;99325.70;1785120;80;21648;-78
2021/05/03 03:40:16;;;;;;;14.28;5.47;;;;;;;12.21;100.00;99321.24;1785343;80;21105;-78
2021/05/03 03:42:43;;;;;;;14.53;6.00;;;;;;;12.25;100.00;99310.84;1745446;82;21178;-79
2021/05/03 03:45:12;;;;;;;12.13;6.17;;;;;;;12.28;100.00;99305.85;1785331;80;21555;-77
2021/05/03 03:47:40;;;;;;;13.18;5.70;;;;;;;12.33;100.00;99318.29;1785188;80;21575;-77
2021/05/03 03:50:10;;;;;;;14.75;5.85;;;;;;;12.37;100.00;99316.55;1785109;80;21314;-79
2021/05/03 03:52:37;;;;;;;14.65;5.50;;;;;;;12.39;100.00;99316.64;1716057;83;21279;-79
2021/05/03 03:55:10;;;;;;;16.27;6.40;;;;;;;12.44;100.00;99318.77;1784990;80;21177;-78
2021/05/03 03:57:38;;;;;;;15.23;6.30;;;;;;;12.46;100.00;99308.03;1785111;80;21197;-79
2021/05/03 04:00:07;;;;;;;16.42;6.10;;;;;;;12.54;100.00;99309.75;1785237;80;21697;-79
2021/05/03 04:02:36;;;;;;;15.15;6.15;;;;;;;12.59;100.00;99297.78;1745367;82;21162;-78
2021/05/03 04:21:32;;;;;;;16.93;5.80;;;;;;;13.02;100.00;99305.63;1813724;79;21106;-78
2021/05/03 04:24:04;;;;;;;12.80;6.35;;;;;;;13.17;100.00;99302.73;1812071;79;21291;-78
2021/05/03 04:26:25;;;;;;;14.50;6.00;;;;;;;13.31;100.00;99294.13;1812382;79;21134;-78
2021/05/03 04:28:55;;;;;;;18.30;6.92;;;;;;;13.46;100.00;99287.98;1813679;79;21109;-79
2021/05/03 04:31:23;;;;;;;15.00;6.03;;;;;;;13.62;100.00;99276.40;1813592;79;21165;-79
2021/05/03 04:33:51;;;;;;;14.87;5.47;;;;;;;13.71;100.00;99264.27;1813626;79;21279;-79
2021/05/03 04:36:19;;;;;;;19.35;7.00;;;;;;;13.78;100.00;99252.04;1813623;79;21272;-78
2021/05/03 04:38:47;;;;;;;15.30;6.00;;;;;;;13.83;100.00;99255.78;1813801;79;21217;-79
2021/05/03 04:41:15;;;;;;;16.12;5.92;;;;;;;13.88;100.00;99267.89;1813864;79;21129;-78
2021/05/03 04:43:43;;;;;;;16.80;6.15;;;;;;;13.90;100.00;99291.61;1813588;78;21149;-79
2021/05/03 04:46:11;;;;;;;17.25;6.03;;;;;;;13.90;100.00;99290.25;1813582;79;21137;-79
2021/05/03 04:48:38;;;;;;;16.32;6.50;;;;;;;13.90;100.00;99287.53;1813689;78;21118;-78
2021/05/03 04:51:06;;;;;;;19.57;6.37;;;;;;;13.88;100.00;99284.20;1813661;78;21706;-79
2021/05/03 04:53:34;;;;;;;16.90;6.35;;;;;;;13.88;100.00;99280.12;1813627;78;21133;-78
2021/05/03 04:56:03;;;;;;;18.50;6.25;;;;;;;13.89;100.00;99279.91;1813472;78;21283;-78
2021/05/03 04:58:31;;;;;;;14.43;6.53;;;;;;;13.91;100.00;99285.97;1813575;79;21133;-78
2021/05/03 05:00:58;;;;;;;16.87;6.30;;;;;;;13.95;100.00;99281.80;1813867;78;21563;-79
2021/05/03 05:03:26;;;;;;;16.80;6.80;;;;;;;13.98;100.00;99275.92;1813614;79;21117;-80
2021/05/03 05:05:54;;;;;;;19.00;6.28;;;;;;;13.99;100.00;99277.61;1813706;79;21129;-79
2021/05/03 05:08:23;;;;;;;15.50;5.85;;;;;;;13.99;100.00;99281.69;1813876;79;21682;-78
2021/05/03 05:10:51;;;;;;;19.60;6.65;;;;;;;13.98;100.00;99288.15;1813672;78;21129;-77
2021/05/03 05:13:18;;;;;;;16.67;6.17;;;;;;;13.99;100.00;99284.94;1808486;79;21133;-76
2021/05/03 05:15:46;;;;;;;19.20;7.22;;;;;;;13.97;100.00;99278.34;1809789;79;21679;-78
2021/05/03 05:18:14;;;;;;;15.23;5.75;;;;;;;13.98;100.00;99256.07;1827156;77;21286;-79
2021/05/03 05:20:42;;;;;;;16.90;6.17;;;;;;;13.97;100.00;99262.04;1846470;78;21098;-78
2021/05/03 05:23:11;;;;;;;16.73;6.72;;;;;;;13.96;100.00;99292.14;1845987;78;21264;-77
2021/05/03 05:25:40;;;;;;;16.42;6.42;;;;;;;13.94;100.00;99277.41;1845770;78;21272;-77
2021/05/03 05:28:07;;;;;;;14.40;5.45;;;;;;;13.90;100.00;99271.23;1845488;78;21118;-77
2021/05/03 05:30:35;;;;;;;17.30;5.53;;;;;;;13.85;100.00;99293.09;1844684;78;21114;-79
2021/05/03 05:33:03;;;;;;;15.95;6.17;;;;;;;13.83;100.00;99291.11;1845656;78;21161;-79
2021/05/03 05:35:31;;;;;;;17.70;6.37;;;;;;;13.81;100.00;99291.85;1845826;78;21133;-78
2021/05/03 05:38:00;;;;;;;15.50;6.35;;;;;;;13.81;100.00;99278.27;1845948;78;21137;-75
2021/05/03 05:40:28;;;;;;;15.90;5.97;;;;;;;13.84;100.00;99281.06;1845917;78;21121;-78
2021/05/03 05:42:56;;;;;;;11.18;5.53;;;;;;;13.85;100.00;99291.73;1845993;78;21086;-81
2021/05/03 05:45:26;;;;;;;16.48;7.78;;;;;;;13.85;100.00;99287.66;1845456;78;21255;-80
2021/05/03 05:47:54;;;;;;;17.25;6.62;;;;;;;13.90;100.00;99285.67;1822544;78;21268;-79
2021/05/03 05:50:22;;;;;;;15.35;7.83;;;;;;;13.95;100.00;99298.11;1846313;78;21518;-79
2021/05/03 05:52:50;;;;;;;17.98;7.25;;;;;;;14.00;100.00;99309.16;1845944;78;21137;-78
2021/05/03 05:55:18;;;;;;;11.90;5.70;;;;;;;14.07;100.00;99311.05;1846004;78;21295;-79
2021/05/03 05:57:45;;;;;;;16.25;7.22;;;;;;;14.17;100.00;99304.66;1845979;78;21117;-80
2021/05/03 06:00:14;;;;;;;19.98;6.87;;;;;;;14.24;100.00;99307.66;1845987;78;21745;-80
2021/05/03 06:02:45;;;;;;;13.65;6.17;;;;;;;14.29;100.00;99300.73;1845750;78;21133;-80
2021/05/03 06:05:14;;;;;;;17.35;6.15;;;;;;;14.34;100.00;99300.43;1843543;78;21299;-80
2021/05/03 06:07:43;;;;;;;14.83;5.62;;;;;;;14.44;100.00;99290.45;1845731;78;21149;-78
2021/05/03 06:10:12;;;;;;;17.48;6.03;;;;;;;14.53;100.00;99289.69;1845896;78;21414;-78
2021/05/03 06:12:40;;;;;;;13.85;5.70;;;;;;;14.61;100.00;99293.56;1846085;78;21168;-80
2021/05/03 06:15:09;;;;;;;15.55;6.47;;;;;;;14.67;100.00;99296.77;1845571;78;21113;-75
2021/05/03 06:17:36;;;;;;;13.95;6.28;;;;;;;14.73;100.00;99298.64;1839204;78;21248;-75
2021/05/03 06:20:07;;;;;;;16.00;6.60;;;;;;;14.80;100.00;99300.80;1812415;79;21134;-76
2021/05/03 06:22:36;;;;;;;15.72;6.40;;;;;;;14.88;100.00;99302.97;1812394;78;21335;-73
2021/05/03 06:25:08;;;;;;;19.00;7.00;;;;;;;14.94;100.00;99302.08;1812469;78;21256;-73
2021/05/03 06:27:35;;;;;;;18.20;6.17;;;;;;;15.00;100.00;99295.78;1812620;79;21111;-74
2021/05/03 06:30:05;;;;;;;16.50;5.72;;;;;;;15.12;100.00;99294.54;1812478;79;21265;-74
2021/05/03 06:32:34;;;;;;;15.30;6.33;;;;;;;15.24;100.00;99290.60;1812800;78;21316;-73
2021/05/03 06:35:01;;;;;;;18.40;6.28;;;;;;;15.26;100.00;99283.05;1812537;79;21136;-73
2021/05/03 06:37:29;;;;;;;14.43;5.62;;;;;;;15.28;100.00;99271.39;1812335;79;21147;-73
2021/05/03 06:39:57;;;;;;;20.40;6.25;;;;;;;15.35;100.00;99262.14;1812501;79;21289;-75
2021/05/03 06:42:25;;;;;;;15.53;5.78;;;;;;;15.49;100.00;99259.30;1812445;79;21119;-74
2021/05/03 06:44:53;;;;;;;27.65;7.22;;;;;;;15.68;100.00;99257.46;1790391;79;21139;-73
2021/05/03 06:47:21;;;;;;;17.23;6.53;;;;;;;15.85;100.00;99255.87;1812506;79;21289;-72
2021/05/03 06:49:49;;;;;;;14.58;6.17;;;;;;;16.02;100.00;99253.37;1812828;78;21545;-73
2021/05/03 06:52:17;;;;;;;16.70;6.30;;;;;;;16.11;100.00;99261.59;1812456;79;21187;-74
2021/05/03 06:54:47;;;;;;;17.57;6.72;;;;;;;16.17;100.00;99263.11;1812921;79;21127;-75
2021/05/03 06:57:19;;;;;;;15.00;5.95;;;;;;;16.27;100.00;99260.66;1812539;79;21269;-74
2021/05/03 06:59:47;;;;;;;14.13;6.20;;;;;;;16.40;100.00;99270.06;1812597;78;21127;-75
2021/05/03 07:02:15;;;;;;;22.52;12.07;;;;;;;16.51;100.00;99269.29;1812636;79;21273;-74
2021/05/03 07:04:44;;;;;;;15.48;6.47;;;;;;;16.63;100.00;99270.73;1812253;79;21561;-74
2021/05/03 07:07:13;;;;;;;14.90;6.40;;;;;;;16.75;100.00;99265.84;1812232;79;21134;-71
2021/05/03 07:09:45;;;;;;;19.42;6.42;;;;;;;16.93;100.00;99263.13;1812568;79;21146;-77
2021/05/03 07:12:11;;;;;;;15.18;6.35;;;;;;;17.10;100.00;99246.90;1811811;79;21167;-72
2021/05/03 07:14:40;;;;;;;16.32;5.83;;;;;;;17.32;100.00;99242.28;1812515;79;21146;-75
2021/05/03 07:17:08;;;;;;;19.45;6.25;;;;;;;17.32;100.00;99242.28;1812182;79;21158;-76
2021/05/03 07:19:36;;;;;;;18.37;6.03;;;;;;;17.38;100.00;99257.72;1810192;79;21271;-74
2021/05/03 07:22:06;;;;;;;32.95;21.27;;;;;;;17.41;100.00;99259.45;1810788;79;21714;-76
2021/05/03 07:24:36;;;;;;;15.45;6.83;;;;;;;17.34;100.00;99253.27;1810956;79;21125;-74
2021/05/03 07:27:09;;;;;;;16.15;6.25;;;;;;;17.31;100.00;99261.09;1810763;79;21279;-75
2021/05/03 07:29:39;;;;;;;20.70;6.92;;;;;;;17.26;100.00;99274.08;1678439;85;21152;-74
2021/05/03 07:32:07;;;;;;;18.62;6.92;;;;;;;17.28;100.00;99269.21;1678697;85;21840;-74
2021/05/03 07:34:37;;;;;;;16.40;6.28;;;;;;;17.34;100.00;99271.56;1678610;85;21564;-73
2021/05/03 07:37:06;;;;;;;20.05;6.55;;;;;;;17.38;100.00;99268.11;1678835;85;21221;-76
2021/05/03 07:39:34;;;;;;;13.48;6.33;;;;;;;17.41;100.00;99268.20;1678749;85;21173;-74
2021/05/03 07:42:03;;;;;;;17.48;6.65;;;;;;;17.40;100.00;99271.44;1678626;85;21639;-72
2021/05/03 07:44:34;;;;;;;16.10;6.30;;;;;;;17.42;100.00;99268.48;1675633;85;21165;-74
2021/05/03 07:47:03;;;;;;;14.38;6.25;;;;;;;17.46;100.00;99267.78;1717572;82;21210;-75
2021/05/03 07:49:31;;;;;;;18.77;6.72;;;;;;;17.53;100.00;99266.31;1726161;82;21148;-73
2021/05/03 07:51:59;;;;;;;15.28;5.95;;;;;;;17.59;100.00;99274.92;1726015;82;21294;-72
2021/05/03 07:54:27;;;;;;;20.12;7.42;;;;;;;17.61;100.00;99276.06;1726363;83;21578;-73
2021/05/03 07:56:54;;;;;;;15.13;6.50;;;;;;;17.59;100.00;99291.87;1726747;83;21208;-75
2021/05/03 07:59:22;;;;;;;20.27;7.05;;;;;;;17.57;100.00;99291.27;1726774;83;21168;-75
2021/05/03 08:01:50;;;;;;;13.78;6.22;;;;;;;17.65;100.00;99279.47;1726674;83;21216;-74
2021/05/03 08:04:18;;;;;;;16.20;6.30;;;;;;;17.80;100.00;99269.42;1725111;82;21315;-75
2021/05/03 08:06:47;;;;;;;14.47;5.80;;;;;;;18.05;100.00;99263.45;1724581;82;21636;-75
2021/05/03 08:09:15;;;;;;;17.15;6.60;;;;;;;18.25;100.00;99260.33;1726730;83;21160;-73
2021/05/03 08:11:44;;;;;;;15.43;6.37;;;;;;;18.33;100.00;99253.13;1724977;82;21692;-73
2021/05/03 08:14:15;;;;;;;21.55;7.03;;;;;;;18.25;100.00;99243.36;1711207;84;21155;-74
2021/05/03 08:16:42;;;;;;;14.47;6.40;;;;;;;18.22;100.00;99241.13;1736608;82;21254;-72
2021/05/03 08:19:12;;;;;;;19.65;8.65;;;;;;;18.38;100.00;99233.53;1718456;82;21168;-73
2021/05/03 08:21:42;;;;;;;22.65;7.30;;;;;;;18.74;100.00;99242.45;1711461;84;21152;-73
2021/05/03 08:24:10;;;;;;;21.20;7.15;;;;;;;19.22;100.00;99240.35;1715399;84;21116;-73
2021/05/03 08:26:38;;;;;;;17.10;6.00;;;;;;;19.54;100.00;99245.27;1772302;79;21145;-73
2021/05/03 08:29:06;;;;;;;16.00;6.08;;;;;;;19.81;100.00;99230.91;1811866;79;21315;-73
2021/05/03 08:31:34;;;;;;;19.30;7.40;;;;;;;20.05;100.00;99216.45;1742862;82;21165;-73
2021/05/03 08:34:04;;;;;;;16.37;6.40;;;;;;;20.35;100.00;99220.13;1811982;79;21125;-73
2021/05/03 08:36:32;;;;;;;18.25;7.42;;;;;;;20.67;100.00;99214.77;1811205;79;21299;-72
2021/05/03 08:39:00;;;;;;;14.28;6.03;;;;;;;20.96;100.00;99195.83;1798096;79;21178;-72
2021/05/03 08:41:28;;;;;;;18.67;6.12;;;;;;;21.13;100.00;99186.93;1811833;78;21613;-74
2021/05/03 08:43:56;;;;;;;17.60;6.67;;;;;;;21.13;100.00;99177.86;1812411;79;21161;-73
2021/05/03 08:57:09;;;;;;;14.63;5.90;;;;;;;22.27;100.00;99178.91;1727969;83;21146;-72
2021/05/03 08:59:37;;;;;;;15.70;6.53;;;;;;;22.37;100.00;99177.58;1695672;84;21203;-73
2021/05/03 09:02:07;;;;;;;16.27;6.03;;;;;;;22.49;100.00;99174.61;1695881;83;21289;-74
2021/05/03 09:04:36;;;;;;;17.32;6.12;;;;;;;22.58;100.00;99168.84;1695810;84;21350;-74
2021/05/03 09:07:11;;;;;;;18.20;6.62;;;;;;;22.54;100.00;99164.42;1695776;84;21321;-74
2021/05/03 09:09:46;;;;;;;21.57;6.20;;;;;;;22.67;100.00;99171.34;1710399;84;21565;-73
2021/05/03 09:12:25;;;;;;;18.12;6.75;;;;;;;22.92;100.00;99167.79;1814076;77;23570;-73
2021/05/03 09:15:00;;;;;;;17.47;6.47;;;;;;;22.73;100.00;99170.79;1786730;80;21177;-75
2021/05/03 09:17:38;;;;;;;17.50;6.80;;;;;;;22.69;100.00;99170.51;1782920;80;21141;-75
2021/05/03 09:22:55;;;;;;;18.27;6.45;;;;;;;23.06;100.00;99163.16;1762142;81;21175;-74
2021/05/03 09:25:40;;;;;;;16.25;5.78;;;;;;;23.28;100.00;99169.77;1747305;82;21164;-74
2021/05/03 09:28:20;;;;;;;15.72;6.20;;;;;;;23.40;100.00;99164.80;1763127;81;21132;-76
2021/05/03 09:30:52;;;;;;;21.10;6.60;;;;;;;23.64;100.00;99164.23;1762808;80;21112;-76
2021/05/03 09:33:35;;;;;;;21.95;6.62;;;;;;;23.84;100.00;99156.48;1855266;77;23364;-76
2021/05/03 09:36:10;;;;;;;17.20;6.20;;;;;;;23.91;100.00;99162.54;1827892;78;21128;-74
2021/05/03 09:38:49;;;;;;;16.80;6.15;;;;;;;24.05;100.00;99163.59;1789158;80;21392;-74
2021/05/03 09:41:30;;;;;;;18.42;8.13;;;;;;;24.10;100.00;99153.09;1788835;80;21294;-75
2021/05/03 09:44:07;;;;;;;18.52;7.08;;;;;;;23.80;100.00;99155.37;1789385;80;21164;-74
2021/05/03 09:46:43;;;;;;;15.98;5.97;;;;;;;23.54;100.00;99151.27;1789134;80;21298;-74
2021/05/03 09:49:16;;;;;;;17.45;6.65;;;;;;;23.27;100.00;99150.20;1788948;80;21144;-74
2021/05/03 09:51:48;;;;;;;20.05;7.10;;;;;;;23.18;100.00;99153.22;1789340;80;21155;-75
2021/05/03 09:54:29;;;;;;;18.92;7.22;;;;;;;23.22;100.00;99151.59;1789279;80;21721;-73
2021/05/03 09:57:10;;;;;;;27.10;8.90;;;;;;;23.13;100.00;99150.75;1826809;77;28503;-74
2021/05/03 09:59:44;;;;;;;21.25;8.98;;;;;;;22.96;100.00;99148.77;1744869;81;21157;-74
2021/05/03 10:02:26;;;;;;;18.77;7.62;;;;;;;22.91;100.00;99148.77;1744672;82;21611;-75
2021/05/03 10:05:08;;;;;;;20.08;6.92;;;;;;;22.88;100.00;99157.05;1745144;82;21145;-75
2021/05/03 10:07:41;;;;;;;18.00;6.60;;;;;;;22.88;100.00;99144.64;1744754;82;21183;-75
2021/05/03 10:10:36;;;;;;;18.42;6.97;;;;;;;22.83;100.00;99152.09;1701948;84;21177;-74
2021/05/03 10:12:54;;;;;;;20.40;7.08;;;;;;;22.77;100.00;99157.30;1741710;81;21208;-74
2021/05/03 10:15:23;;;;;;;16.48;7.47;;;;;;;22.65;100.00;99142.41;1744623;82;21162;-74
2021/05/03 10:17:51;;;;;;;17.37;7.65;;;;;;;22.60;100.00;99143.78;1743201;82;21338;-75
2021/05/03 10:20:21;;;;;;;19.80;7.10;;;;;;;22.60;100.00;99141.02;1739624;82;21278;-74
2021/05/03 10:22:53;;;;;;;20.25;6.58;;;;;;;22.53;100.00;99136.59;1739781;82;21156;-74
2021/05/03 10:25:21;;;;;;;19.12;7.15;;;;;;;22.54;100.00;99137.41;1739818;82;21151;-74
2021/05/03 10:27:51;;;;;;;19.75;7.28;;;;;;;22.72;100.00;99145.17;1739709;82;21188;-75
2021/05/03 10:30:22;;;;;;;16.57;6.70;;;;;;;22.92;100.00;99144.92;1693074;82;21168;-74
2021/05/03 10:33:11;;;;;;;19.77;7.83;;;;;;;23.07;100.00;99135.84;1739869;82;21641;-75
2021/05/03 10:35:49;;;;;;;16.52;6.55;;;;;;;23.16;100.00;99143.02;1739569;82;21314;-75
2021/05/03 10:38:39;;;;;;;17.10;7.08;;;;;;;23.22;100.00;99137.80;1811634;77;22936;-75
2021/05/03 10:41:29;;;;;;;20.37;7.80;;;;;;;23.08;100.00;99136.95;1772870;80;21148;-74
2021/05/03 10:44:15;;;;;;;16.70;6.35;;;;;;;22.97;100.00;99131.14;1725330;79;21324;-74
2021/05/03 10:49:33;;;;;;;17.48;6.78;;;;;;;22.63;100.00;99138.55;1700429;84;21625;-74
2021/05/03 10:54:50;;;;;;;21.52;7.95;;;;;;;22.60;100.00;99135.52;1701125;84;21325;-74
2021/05/03 10:57:24;;;;;;;;;;;;;;;22.68;100.00;99140.47;1681493;84;21187;-74
2021/05/03 10:59:55;;;;;;;15.80;7.00;;;;;;;22.65;100.00;99132.77;1701116;84;20260;-73
2021/05/03 11:02:26;;;;;;;20.30;8.15;;;;;;;22.53;100.00;99135.20;1701419;84;21156;-74
2021/05/03 11:05:26;;;;;;;18.57;7.92;;;;;;;22.48;100.00;99143.45;1839446;77;28393;-74
2021/05/03 11:08:09;;;;;;;17.32;7.62;;;;;;;22.42;100.00;99137.67;1827654;78;21124;-74
2021/05/03 11:11:05;;;;;;;19.95;8.53;;;;;;;22.51;100.00;99140.72;1827603;77;21269;-74
2021/05/03 11:13:47;;;;;;;23.83;8.23;;;;;;;22.51;100.00;99133.28;1827541;78;21573;-74
2021/05/03 11:16:32;;;;;;;18.50;6.95;;;;;;;22.60;100.00;99123.12;1827797;78;21549;-75
2021/05/03 11:19:03;;;;;;;15.68;6.92;;;;;;;22.57;100.00;99110.70;1822034;78;21128;-74
2021/05/03 11:21:42;;;;;;;22.20;8.58;;;;;;;22.53;100.00;99117.30;1789168;79;21143;-75
2021/05/03 11:24:23;;;;;;;22.20;9.63;;;;;;;22.53;100.00;99116.48;1753584;82;21160;-75
2021/05/03 11:29:31;;;;;;;21.35;8.05;;;;;;;22.41;100.00;99124.98;1666103;86;21348;-74
2021/05/03 11:32:01;;;;;;;18.85;8.15;;;;;;;22.46;100.00;99134.64;1811717;77;22766;-73
2021/05/03 11:34:42;;;;;;;18.80;8.15;;;;;;;22.42;100.00;99151.44;1773055;80;21133;-74
2021/05/03 11:37:16;;;;;;;19.82;8.40;;;;;;;22.33;100.00;99153.07;1753284;81;21283;-74
2021/05/03 11:45:28;;;;;;;16.75;7.67;;;;;;;22.18;100.00;99157.36;1760395;81;21538;-74
2021/05/03 11:47:57;;;;;;;16.85;8.03;;;;;;;22.21;100.00;99148.31;1758279;81;21298;-74
2021/05/03 11:50:29;;;;;;;19.23;7.85;;;;;;;22.17;100.00;99148.02;1759979;81;21140;-73
2021/05/03 11:53:01;;;;;;;29.02;13.50;;;;;;;22.06;100.00;99143.02;1738160;82;21165;-74
2021/05/03 11:55:30;;;;;;;28.40;13.05;;;;;;;21.96;100.00;99135.53;1760147;81;21151;-75
2021/05/03 11:57:59;;;;;;;24.12;12.58;;;;;;;21.88;100.00;99141.54;1741894;82;21259;-74
2021/05/03 12:00:27;;;;;;;23.60;13.88;;;;;;;21.86;100.00;99145.11;1760051;81;21147;-74
2021/05/03 12:03:07;;;;;;;33.30;16.75;;;;;;;21.88;100.00;99148.98;1760339;81;21739;-75
2021/05/03 12:05:35;;;;;;;28.67;14.87;;;;;;;21.83;100.00;99154.45;1760354;81;21290;-74
2021/05/03 12:08:12;;;;;;;34.10;18.15;;;;;;;21.64;100.00;99154.91;1760260;81;21607;-74
2021/05/03 12:10:40;;;;;;;30.72;18.55;;;;;;;21.55;100.00;99161.45;1741461;82;21155;-73
2021/05/03 12:13:16;;;;;;;37.50;19.87;;;;;;;21.47;100.00;99162.48;1764465;81;21607;-75
2021/05/03 12:15:44;;;;;;;29.23;17.85;;;;;;;21.40;100.00;99169.55;1772785;81;21307;-74